DAJAN EDDV-LKTB
Flight info
| Callsign | DAJAN |
|---|---|
| Flight time | 0h 59m |
| Altitude | 39000 |
| Route | POVEL4S POVEL Y800 TADUV Z21 OSTRA DCT OMELO DCT VLM DCT TUMKA |
| Aircraft | CL60/M-SBDE1E2E3FGHIJ1J4J5J7M3RWXYZ/LB1V1D1 |
Departure
| Time | 2026-04-20 14:54 |
|---|---|
| Airport | Hannover Airport (EDDV) |
Arrival
| Time | 2026-04-20 15:53 |
|---|---|
| Airport | Brno-Tuřany Airport (LKTB) |
| Time | Latitude | Longitude | Altitude | Speed | Heading |
|---|---|---|---|---|---|
| 2026-04-20 14:17 | 52.45641 | 9.70886 | 191 ft | 0 kts | 300° |
| 2026-04-20 14:49 | 52.45646 | 9.70872 | 191 ft | 5 kts | 301° |
| 2026-04-20 14:49 | 52.45633 | 9.70785 | 191 ft | 13 kts | 213° |
| 2026-04-20 14:50 | 52.45576 | 9.70709 | 191 ft | 11 kts | 226° |
| 2026-04-20 14:50 | 52.45518 | 9.70671 | 191 ft | 5 kts | 182° |
| 2026-04-20 14:50 | 52.45513 | 9.70671 | 191 ft | 0 kts | 183° |
| 2026-04-20 14:52 | 52.45488 | 9.70669 | 191 ft | 8 kts | 182° |
| 2026-04-20 14:52 | 52.45422 | 9.70664 | 191 ft | 8 kts | 218° |
| 2026-04-20 14:52 | 52.45415 | 9.70634 | 191 ft | 0 kts | 272° |
| 2026-04-20 14:52 | 52.45415 | 9.70630 | 191 ft | 0 kts | 273° |
| 2026-04-20 14:53 | 52.45416 | 9.70625 | 191 ft | 6 kts | 273° |
| 2026-04-20 14:54 | 52.45433 | 9.69993 | 191 ft | 109 kts | 273° |
| 2026-04-20 14:54 | 52.45470 | 9.68337 | 542 ft | 168 kts | 272° |
| 2026-04-20 14:54 | 52.45475 | 9.66337 | 1524 ft | 193 kts | 273° |
| 2026-04-20 14:54 | 52.45463 | 9.64160 | 2849 ft | 195 kts | 276° |
| 2026-04-20 14:55 | 52.45525 | 9.61858 | 3756 ft | 220 kts | 277° |
| 2026-04-20 14:55 | 52.45624 | 9.59201 | 3965 ft | 236 kts | 277° |
| 2026-04-20 14:55 | 52.45684 | 9.56547 | 3992 ft | 235 kts | 269° |
| 2026-04-20 14:55 | 52.45225 | 9.53952 | 3993 ft | 238 kts | 240° |
| 2026-04-20 14:56 | 52.43983 | 9.51934 | 4462 ft | 268 kts | 210° |
| 2026-04-20 14:56 | 52.42438 | 9.50487 | 6298 ft | 259 kts | 208° |
| 2026-04-20 14:56 | 52.40973 | 9.49097 | 8072 ft | 251 kts | 207° |
| 2026-04-20 14:56 | 52.39500 | 9.47703 | 9580 ft | 252 kts | 206° |
| 2026-04-20 14:57 | 52.37901 | 9.46703 | 10964 ft | 249 kts | 184° |
| 2026-04-20 14:57 | 52.36233 | 9.46890 | 12219 ft | 244 kts | 157° |
| 2026-04-20 14:57 | 52.34771 | 9.48257 | 12974 ft | 258 kts | 131° |
| 2026-04-20 14:57 | 52.33851 | 9.50845 | 13639 ft | 276 kts | 108° |
| 2026-04-20 14:58 | 52.33175 | 9.53847 | 14650 ft | 288 kts | 108° |
| 2026-04-20 14:58 | 52.32470 | 9.56901 | 15757 ft | 294 kts | 108° |
| 2026-04-20 14:58 | 52.31736 | 9.60063 | 16830 ft | 300 kts | 109° |
| 2026-04-20 14:58 | 52.30996 | 9.63243 | 17863 ft | 304 kts | 109° |
| 2026-04-20 14:59 | 52.30242 | 9.66478 | 18814 ft | 310 kts | 109° |
| 2026-04-20 14:59 | 52.29475 | 9.69760 | 19767 ft | 315 kts | 109° |
| 2026-04-20 14:59 | 52.28686 | 9.73126 | 20702 ft | 319 kts | 109° |
| 2026-04-20 14:59 | 52.27891 | 9.76510 | 21702 ft | 320 kts | 109° |
| 2026-04-20 15:00 | 52.27095 | 9.79890 | 22565 ft | 324 kts | 109° |
| 2026-04-20 15:00 | 52.26289 | 9.83313 | 23379 ft | 329 kts | 109° |
| 2026-04-20 15:00 | 52.25465 | 9.86804 | 24178 ft | 333 kts | 109° |
| 2026-04-20 15:00 | 52.24787 | 9.90408 | 24928 ft | 336 kts | 100° |
| 2026-04-20 15:01 | 52.24317 | 9.94179 | 25577 ft | 344 kts | 99° |
| 2026-04-20 15:01 | 52.23839 | 9.98030 | 26355 ft | 348 kts | 100° |
| 2026-04-20 15:01 | 52.23353 | 10.01905 | 27150 ft | 350 kts | 100° |
| 2026-04-20 15:01 | 52.22863 | 10.05812 | 27783 ft | 356 kts | 100° |
| 2026-04-20 15:02 | 52.22358 | 10.09812 | 28485 ft | 360 kts | 100° |
| 2026-04-20 15:02 | 52.21853 | 10.13792 | 29125 ft | 364 kts | 100° |
| 2026-04-20 15:02 | 52.21339 | 10.17837 | 29737 ft | 368 kts | 101° |
| 2026-04-20 15:02 | 52.20815 | 10.21942 | 30300 ft | 373 kts | 101° |
| 2026-04-20 15:03 | 52.20281 | 10.26105 | 30856 ft | 377 kts | 101° |
| 2026-04-20 15:03 | 52.19739 | 10.30315 | 31350 ft | 381 kts | 101° |
| 2026-04-20 15:03 | 52.19185 | 10.34608 | 31709 ft | 385 kts | 101° |
| 2026-04-20 15:03 | 52.18624 | 10.38936 | 32002 ft | 390 kts | 101° |
| 2026-04-20 15:04 | 52.18059 | 10.43279 | 32300 ft | 395 kts | 100° |
| 2026-04-20 15:04 | 52.17475 | 10.47754 | 32574 ft | 399 kts | 100° |
| 2026-04-20 15:04 | 52.16890 | 10.52224 | 32846 ft | 403 kts | 100° |
| 2026-04-20 15:04 | 52.16305 | 10.56683 | 33106 ft | 407 kts | 100° |
| 2026-04-20 15:05 | 52.15706 | 10.61226 | 33354 ft | 411 kts | 100° |
| 2026-04-20 15:05 | 52.15091 | 10.65879 | 33586 ft | 416 kts | 101° |
| 2026-04-20 15:05 | 52.14478 | 10.70506 | 33813 ft | 420 kts | 101° |
| 2026-04-20 15:05 | 52.13858 | 10.75160 | 34079 ft | 422 kts | 101° |
| 2026-04-20 15:06 | 52.13153 | 10.79776 | 34443 ft | 423 kts | 106° |
| 2026-04-20 15:06 | 52.12079 | 10.84245 | 34831 ft | 424 kts | 115° |
| 2026-04-20 15:06 | 52.10605 | 10.88484 | 35211 ft | 425 kts | 121° |
| 2026-04-20 15:06 | 52.09005 | 10.92537 | 35560 ft | 425 kts | 122° |
| 2026-04-20 15:07 | 52.07414 | 10.96569 | 35892 ft | 426 kts | 122° |
| 2026-04-20 15:07 | 52.05795 | 11.00666 | 36211 ft | 427 kts | 122° |
| 2026-04-20 15:07 | 52.04188 | 11.04729 | 36507 ft | 427 kts | 122° |
| 2026-04-20 15:07 | 52.02580 | 11.08785 | 36790 ft | 428 kts | 122° |
| 2026-04-20 15:08 | 52.00972 | 11.12831 | 37053 ft | 429 kts | 122° |
| 2026-04-20 15:08 | 51.99332 | 11.16952 | 37294 ft | 431 kts | 122° |
| 2026-04-20 15:08 | 51.97712 | 11.21019 | 37526 ft | 432 kts | 122° |
| 2026-04-20 15:08 | 51.96077 | 11.25118 | 37760 ft | 433 kts | 122° |
| 2026-04-20 15:09 | 51.94427 | 11.29246 | 38001 ft | 434 kts | 122° |
| 2026-04-20 15:09 | 51.92789 | 11.33338 | 38235 ft | 434 kts | 122° |
| 2026-04-20 15:09 | 51.91152 | 11.37424 | 38500 ft | 434 kts | 122° |
| 2026-04-20 15:09 | 51.89507 | 11.41521 | 38806 ft | 433 kts | 122° |
| 2026-04-20 15:10 | 51.87867 | 11.45600 | 39062 ft | 433 kts | 122° |
| 2026-04-20 15:10 | 51.84536 | 11.53866 | 39096 ft | 446 kts | 122° |
| 2026-04-20 15:11 | 51.81089 | 11.62394 | 39085 ft | 458 kts | 122° |
| 2026-04-20 15:11 | 51.77555 | 11.71103 | 39075 ft | 468 kts | 122° |
| 2026-04-20 15:12 | 51.73953 | 11.79948 | 39076 ft | 477 kts | 122° |
| 2026-04-20 15:12 | 51.70274 | 11.88951 | 39067 ft | 484 kts | 123° |
| 2026-04-20 15:13 | 51.66530 | 11.98084 | 39059 ft | 491 kts | 123° |
| 2026-04-20 15:13 | 51.62734 | 12.07309 | 39064 ft | 494 kts | 123° |
| 2026-04-20 15:14 | 51.58957 | 12.16457 | 39069 ft | 494 kts | 122° |
| 2026-04-20 15:14 | 51.55154 | 12.25637 | 39069 ft | 493 kts | 122° |
| 2026-04-20 15:15 | 51.51329 | 12.34835 | 39072 ft | 493 kts | 122° |
| 2026-04-20 15:15 | 51.47488 | 12.44039 | 39063 ft | 493 kts | 122° |
| 2026-04-20 15:16 | 51.43649 | 12.53208 | 39062 ft | 493 kts | 122° |
| 2026-04-20 15:16 | 51.39989 | 12.62493 | 39060 ft | 493 kts | 120° |
| 2026-04-20 15:17 | 51.36355 | 12.71847 | 39056 ft | 493 kts | 121° |
| 2026-04-20 15:17 | 51.32729 | 12.81146 | 39053 ft | 494 kts | 121° |
| 2026-04-20 15:18 | 51.29100 | 12.90410 | 39050 ft | 494 kts | 121° |
| 2026-04-20 15:18 | 51.25373 | 12.99631 | 39046 ft | 494 kts | 122° |
| 2026-04-20 15:19 | 51.21629 | 13.08826 | 39042 ft | 494 kts | 122° |
| 2026-04-20 15:19 | 51.17896 | 13.17963 | 39037 ft | 495 kts | 122° |
| 2026-04-20 15:20 | 51.14118 | 13.27180 | 39033 ft | 495 kts | 122° |
| 2026-04-20 15:20 | 51.10347 | 13.36347 | 39024 ft | 495 kts | 122° |
| 2026-04-20 15:21 | 51.06556 | 13.45532 | 39012 ft | 495 kts | 122° |
| 2026-04-20 15:21 | 51.02779 | 13.54651 | 39011 ft | 495 kts | 122° |
| 2026-04-20 15:22 | 50.98980 | 13.63791 | 39021 ft | 494 kts | 122° |
| 2026-04-20 15:22 | 50.95192 | 13.72874 | 39018 ft | 494 kts | 123° |
| 2026-04-20 15:23 | 50.90948 | 13.81508 | 39012 ft | 495 kts | 134° |
| 2026-04-20 15:23 | 50.85984 | 13.88927 | 38999 ft | 496 kts | 137° |
| 2026-04-20 15:24 | 50.80931 | 13.96383 | 39001 ft | 496 kts | 137° |
| 2026-04-20 15:24 | 50.75897 | 14.03790 | 39009 ft | 496 kts | 137° |
| 2026-04-20 15:25 | 50.70828 | 14.11226 | 39017 ft | 496 kts | 137° |
| 2026-04-20 15:25 | 50.65768 | 14.18628 | 39026 ft | 496 kts | 137° |
| 2026-04-20 15:26 | 50.60727 | 14.25981 | 39035 ft | 497 kts | 137° |
| 2026-04-20 15:26 | 50.55663 | 14.33345 | 39028 ft | 497 kts | 137° |
| 2026-04-20 15:27 | 50.50565 | 14.40737 | 39025 ft | 497 kts | 137° |
| 2026-04-20 15:27 | 50.45482 | 14.48085 | 39024 ft | 497 kts | 137° |
| 2026-04-20 15:28 | 50.40375 | 14.55444 | 39032 ft | 497 kts | 137° |
| 2026-04-20 15:28 | 50.35311 | 14.62721 | 39037 ft | 498 kts | 137° |
| 2026-04-20 15:29 | 50.30203 | 14.70039 | 39039 ft | 498 kts | 138° |
| 2026-04-20 15:29 | 50.25122 | 14.77296 | 39040 ft | 498 kts | 138° |
| 2026-04-20 15:30 | 50.19968 | 14.84634 | 39035 ft | 499 kts | 138° |
| 2026-04-20 15:30 | 50.14825 | 14.91933 | 39029 ft | 499 kts | 138° |
| 2026-04-20 15:31 | 50.09678 | 14.99216 | 39032 ft | 499 kts | 138° |
| 2026-04-20 15:31 | 50.04526 | 15.06484 | 38936 ft | 496 kts | 138° |
| 2026-04-20 15:31 | 50.01973 | 15.10077 | 38394 ft | 492 kts | 138° |
| 2026-04-20 15:32 | 49.99448 | 15.13626 | 37835 ft | 488 kts | 138° |
| 2026-04-20 15:32 | 49.96936 | 15.17151 | 37270 ft | 486 kts | 138° |
| 2026-04-20 15:32 | 49.94441 | 15.20649 | 36669 ft | 484 kts | 138° |
| 2026-04-20 15:32 | 49.91956 | 15.24126 | 36051 ft | 483 kts | 138° |
| 2026-04-20 15:33 | 49.89482 | 15.27584 | 35426 ft | 481 kts | 138° |
| 2026-04-20 15:33 | 49.86994 | 15.31055 | 34781 ft | 480 kts | 138° |
| 2026-04-20 15:33 | 49.84510 | 15.34516 | 34146 ft | 479 kts | 138° |
| 2026-04-20 15:33 | 49.82047 | 15.37943 | 33514 ft | 477 kts | 138° |
| 2026-04-20 15:34 | 49.79566 | 15.41390 | 32924 ft | 475 kts | 138° |
| 2026-04-20 15:34 | 49.77133 | 15.44766 | 32318 ft | 473 kts | 139° |
| 2026-04-20 15:34 | 49.74662 | 15.48190 | 31726 ft | 472 kts | 139° |
| 2026-04-20 15:34 | 49.72258 | 15.51516 | 31134 ft | 470 kts | 139° |
| 2026-04-20 15:35 | 49.69793 | 15.54921 | 30512 ft | 469 kts | 139° |
| 2026-04-20 15:35 | 49.67394 | 15.58232 | 29886 ft | 467 kts | 139° |
| 2026-04-20 15:35 | 49.64962 | 15.61583 | 29243 ft | 464 kts | 139° |
| 2026-04-20 15:35 | 49.62556 | 15.64893 | 28603 ft | 462 kts | 139° |
| 2026-04-20 15:36 | 49.60170 | 15.68173 | 27891 ft | 458 kts | 140° |
| 2026-04-20 15:36 | 49.57822 | 15.71394 | 27221 ft | 453 kts | 140° |
| 2026-04-20 15:36 | 49.55466 | 15.74624 | 26564 ft | 447 kts | 140° |
| 2026-04-20 15:36 | 49.53165 | 15.77774 | 25952 ft | 440 kts | 140° |
| 2026-04-20 15:37 | 49.50893 | 15.80880 | 25363 ft | 433 kts | 140° |
| 2026-04-20 15:37 | 49.48654 | 15.83937 | 24784 ft | 426 kts | 140° |
| 2026-04-20 15:37 | 49.46473 | 15.86912 | 24207 ft | 418 kts | 140° |
| 2026-04-20 15:37 | 49.44319 | 15.89846 | 23676 ft | 410 kts | 140° |
| 2026-04-20 15:38 | 49.42254 | 15.92766 | 23142 ft | 403 kts | 135° |
| 2026-04-20 15:38 | 49.40628 | 15.96233 | 22584 ft | 398 kts | 118° |
| 2026-04-20 15:38 | 49.39612 | 16.00153 | 22035 ft | 392 kts | 109° |
| 2026-04-20 15:38 | 49.38771 | 16.04076 | 21519 ft | 384 kts | 109° |
| 2026-04-20 15:39 | 49.37929 | 16.07964 | 21001 ft | 378 kts | 109° |
| 2026-04-20 15:39 | 49.37114 | 16.11717 | 20515 ft | 372 kts | 109° |
| 2026-04-20 15:39 | 49.36299 | 16.15471 | 20038 ft | 366 kts | 109° |
| 2026-04-20 15:39 | 49.35506 | 16.19114 | 19553 ft | 360 kts | 109° |
| 2026-04-20 15:40 | 49.34719 | 16.22730 | 19076 ft | 354 kts | 109° |
| 2026-04-20 15:40 | 49.33941 | 16.26297 | 18630 ft | 350 kts | 108° |
| 2026-04-20 15:40 | 49.33179 | 16.29788 | 18125 ft | 346 kts | 108° |
| 2026-04-20 15:40 | 49.32416 | 16.33275 | 17708 ft | 340 kts | 108° |
| 2026-04-20 15:41 | 49.31672 | 16.36671 | 17275 ft | 335 kts | 108° |
| 2026-04-20 15:41 | 49.30926 | 16.40073 | 16829 ft | 335 kts | 108° |
| 2026-04-20 15:41 | 49.30190 | 16.43429 | 16374 ft | 334 kts | 109° |
| 2026-04-20 15:41 | 49.29442 | 16.46830 | 15907 ft | 333 kts | 108° |
| 2026-04-20 15:42 | 49.28705 | 16.50176 | 15489 ft | 333 kts | 108° |
| 2026-04-20 15:42 | 49.27966 | 16.53526 | 15021 ft | 333 kts | 108° |
| 2026-04-20 15:42 | 49.27230 | 16.56858 | 14617 ft | 328 kts | 108° |
| 2026-04-20 15:42 | 49.26496 | 16.60174 | 14155 ft | 326 kts | 108° |
| 2026-04-20 15:43 | 49.25775 | 16.63433 | 13747 ft | 325 kts | 109° |
| 2026-04-20 15:43 | 49.25053 | 16.66685 | 13301 ft | 323 kts | 109° |
| 2026-04-20 15:43 | 49.24361 | 16.69801 | 12909 ft | 321 kts | 109° |
| 2026-04-20 15:43 | 49.23637 | 16.73056 | 12468 ft | 320 kts | 109° |
| 2026-04-20 15:44 | 49.22937 | 16.76304 | 12046 ft | 318 kts | 105° |
| 2026-04-20 15:44 | 49.22568 | 16.79598 | 11615 ft | 317 kts | 97° |
| 2026-04-20 15:44 | 49.22287 | 16.82935 | 11194 ft | 314 kts | 97° |
| 2026-04-20 15:44 | 49.22002 | 16.86240 | 10777 ft | 313 kts | 97° |
| 2026-04-20 15:45 | 49.21716 | 16.89536 | 10360 ft | 312 kts | 97° |
| 2026-04-20 15:45 | 49.21431 | 16.92809 | 9950 ft | 309 kts | 97° |
| 2026-04-20 15:45 | 49.21148 | 16.96036 | 9540 ft | 308 kts | 97° |
| 2026-04-20 15:45 | 49.20863 | 16.99281 | 9126 ft | 306 kts | 97° |
| 2026-04-20 15:46 | 49.20578 | 17.02495 | 8705 ft | 302 kts | 97° |
| 2026-04-20 15:46 | 49.20297 | 17.05660 | 8328 ft | 300 kts | 97° |
| 2026-04-20 15:46 | 49.19848 | 17.08780 | 7880 ft | 299 kts | 111° |
| 2026-04-20 15:46 | 49.18763 | 17.11465 | 7365 ft | 297 kts | 134° |
| 2026-04-20 15:47 | 49.17125 | 17.13322 | 6909 ft | 290 kts | 156° |
| 2026-04-20 15:47 | 49.15194 | 17.14122 | 6169 ft | 291 kts | 184° |
| 2026-04-20 15:47 | 49.13341 | 17.13266 | 5868 ft | 270 kts | 217° |
| 2026-04-20 15:47 | 49.12113 | 17.11212 | 5374 ft | 260 kts | 247° |
| 2026-04-20 15:48 | 49.11727 | 17.08592 | 4930 ft | 252 kts | 273° |
| 2026-04-20 15:48 | 49.11934 | 17.05975 | 4487 ft | 249 kts | 280° |
| 2026-04-20 15:48 | 49.12141 | 17.03412 | 4333 ft | 235 kts | 279° |
| 2026-04-20 15:48 | 49.12348 | 17.00990 | 4229 ft | 222 kts | 280° |
| 2026-04-20 15:49 | 49.12554 | 16.98672 | 4110 ft | 219 kts | 281° |
| 2026-04-20 15:49 | 49.12760 | 16.96366 | 3980 ft | 220 kts | 281° |
| 2026-04-20 15:49 | 49.12968 | 16.94035 | 3714 ft | 216 kts | 281° |
| 2026-04-20 15:49 | 49.13161 | 16.91838 | 3447 ft | 201 kts | 281° |
| 2026-04-20 15:50 | 49.13340 | 16.89803 | 3186 ft | 189 kts | 281° |
| 2026-04-20 15:50 | 49.13512 | 16.87867 | 2931 ft | 179 kts | 281° |
| 2026-04-20 15:50 | 49.13674 | 16.86035 | 2699 ft | 170 kts | 281° |
| 2026-04-20 15:50 | 49.13830 | 16.84271 | 2475 ft | 161 kts | 281° |
| 2026-04-20 15:51 | 49.13970 | 16.82668 | 2265 ft | 141 kts | 281° |
| 2026-04-20 15:51 | 49.14089 | 16.81282 | 2126 ft | 126 kts | 281° |
| 2026-04-20 15:51 | 49.14204 | 16.79987 | 1912 ft | 121 kts | 279° |
| 2026-04-20 15:51 | 49.14318 | 16.78721 | 1763 ft | 119 kts | 281° |
| 2026-04-20 15:52 | 49.14431 | 16.77437 | 1608 ft | 119 kts | 280° |
| 2026-04-20 15:52 | 49.14535 | 16.76226 | 1458 ft | 118 kts | 280° |
| 2026-04-20 15:52 | 49.14643 | 16.74967 | 1296 ft | 118 kts | 279° |
| 2026-04-20 15:53 | 49.14860 | 16.72486 | 996 ft | 118 kts | 277° |
| 2026-04-20 15:53 | 49.14971 | 16.71227 | 821 ft | 119 kts | 281° |
| 2026-04-20 15:53 | 49.15068 | 16.70078 | 774 ft | 94 kts | 277° |
| 2026-04-20 15:53 | 49.15132 | 16.69306 | 783 ft | 30 kts | 278° |
| 2026-04-20 15:54 | 49.15162 | 16.69017 | 786 ft | 28 kts | 278° |
| 2026-04-20 15:54 | 49.15192 | 16.68676 | 787 ft | 32 kts | 277° |
| 2026-04-20 15:54 | 49.15255 | 16.68495 | 787 ft | 16 kts | 4° |
| 2026-04-20 15:54 | 49.15355 | 16.68516 | 788 ft | 9 kts | 8° |
| 2026-04-20 15:55 | 49.15423 | 16.68531 | 788 ft | 7 kts | 9° |
| 2026-04-20 15:55 | 49.15452 | 16.68605 | 789 ft | 14 kts | 98° |
| 2026-04-20 15:55 | 49.15434 | 16.68757 | 789 ft | 7 kts | 141° |
| 2026-04-20 15:55 | 49.15418 | 16.68759 | 789 ft | 0 kts | 186° |